Sagiv Solomon

Chefscout - Maccabi Tel Aviv
17 Jul 2027
Samstag
Verarbeitung

Persönlichkeit

Anpassungsfähigkeit (4) Ehrgeiz (6) Kontroverse (4) Loyalität (4) Druck (3) Professionalität (8) Fairness (19) Temperament (6)

Profil

Trainerstil Demokratisch
Lizenz Kontinentale A
Entschlossenheit 12
Menschenführung 9
Motivation 11
Disziplin 5
Arbeitszufriedenheit
79%
Ermüdung
0%
Rolle Chefscout
Gehalt 37.5K p/W
Vertrag 14.03.2029

Leistung

Verhalten Gut
Trainingseffektivität
32%
Spielerentwicklung
45%
Verletzungsprävention
65%
Taktische Umsetzung
30%

Letzte Ereignisse

Spieler begutachtet jetzt
Nahm an einer Scouting-Besprechung teil jetzt
Empfahl ein Transferziel jetzt
Empfahl ein Transferziel jetzt
Spieler begutachtet jetzt
Spieler begutachtet 7T her
Spieler begutachtet 7T her
Spieler begutachtet 7T her

Aktuell beobachtet

230
Spieler Verein Status Fähigkeit Vertrauen Beobachtet Zuletzt beobachtet Letzte Stimme
Saša Lukić Ipswich Town Aktiv 146 / 141 40% 4 16.07.2027 -
Gabriel Osho Cardiff City Aktiv 132 / 122 40% 3 16.07.2027 -
Guille Rosas Gijón Aktiv 143 / 133 40% 2 16.07.2027 -
Paik Seung-Ho Birmingham Aktiv 136 / 132 40% 4 15.07.2027 -
Ousmane Diakité West Bromwich Albion Aktiv 133 / 121 40% 2 15.07.2027 -
Luke McNally Bristol City Aktiv 133 / 137 40% 3 15.07.2027 -
Cameron Pring Bristol City Aktiv 124 / 131 40% 3 13.07.2027 -
Isma Ruiz Córdoba Aktiv 142 / 125 40% 4 13.07.2027 -
Alfie Gilchrist West Bromwich Albion Aktiv 130 / 131 40% 2 13.07.2027 -
Oliver Skipp Leicester City Aktiv 142 / 139 40% 2 12.07.2027 -
Adam Randell Bristol City Aktiv 134 / 139 40% 1 12.07.2027 -
Atsuki Ito Bolton Wanderers Aktiv 127 / 123 40% 3 11.07.2027 -
Gustavo Hamer Sheffield United Aktiv 143 / 143 40% 3 11.07.2027 -
Teden Mengi Luton Town Aktiv 119 / 125 40% 4 10.07.2027 -
Eoin Toal Bolton Wanderers Aktiv 120 / 122 40% 1 10.07.2027 -
Stephen Eustáquio Swansea City Aktiv 142 / 143 40% 1 10.07.2027 -
Lewis Gibson Preston Aktiv 137 / 123 40% 1 08.07.2027 -
Imrân Louza Watford Aktiv 126 / 125 40% 1 07.07.2027 -
Hidemasa Morita Hull City Aktiv 149 / 148 40% 1 06.07.2027 -
Emanuele Valeri Parma Aktiv 145 / 139 40% 1 06.07.2027 -
Di'Shon Bernard Sheffield Wednesday Aktiv 123 / 128 40% 2 04.07.2027 -
Jimmy Dunne Queens Park Rangers Aktiv 131 / 129 40% 1 04.07.2027 -
Josh Edwards Charlton Athletic Aktiv 116 / 130 40% 2 03.07.2027 -
Ben Nelson Leicester City Aktiv 143 / 145 40% 6 02.07.2027 -
Nobel Mendy Hull City Aktiv 144 / 141 40% 3 01.07.2027 -
Tristan Crama Millwall Aktiv 125 / 128 40% 2 01.07.2027 -
Kortney Hause Bristol Rovers Aktiv 116 / 121 40% 1 01.07.2027 -
Jesper Karlström Udinese Aktiv 133 / 134 40% 2 30.06.2027 -
Marco Bellich Juve Stabia Aktiv 119 / 123 40% 2 30.06.2027 -
Aleš Matějů Spezia Aktiv 133 / 119 40% 2 30.06.2027 -
Samuele Birindelli Monza Aktiv 121 / 123 40% 1 29.06.2027 -
Franck Fomeyem Córdoba Aktiv 132 / 122 40% 1 29.06.2027 -
Pierre Cornud Maccabi Haifa Aktiv 128 / 118 40% 10 28.06.2027 -
Lucas Ventura Hapoel Beer Sheva Abgelehnt 130 / 134 40% 1 28.06.2027 Mehr Infos nötig
Sondre Tronstad Blackburn Rovers Aktiv 130 / 122 40% 1 28.06.2027 -
Andrian Kraev Hapoel Tel Aviv Aktiv 129 / 129 40% 12 27.06.2027 -
Toma Bašić Venezia Aktiv 138 / 135 40% 1 27.06.2027 -
Anthony Oyono Frosinone Aktiv 130 / 127 40% 1 24.06.2027 -
Pietro Ceccaroni Palermo Aktiv 120 / 126 40% 1 23.06.2027 -
Fabio Gerli Modena Aktiv 130 / 120 40% 1 23.06.2027 -
Sebastián Driussi River Plate Verloren 123 / 122 40% 1 21.06.2027 -
Ross McCrorie Bristol City Aktiv 125 / 128 40% 2 14.06.2027 -
Josh Murphy Portsmouth Verloren 135 / 123 40% 1 14.06.2027 -
Lucas Boyé Alavés Aktiv 135 / 139 40% 1 14.06.2027 -
Tomáš Chorý Spartak Moscow Aktiv 141 / 141 40% 4 08.06.2027 -
Sindre Walle Egeli Nottingham Forest Aktiv 140 / 129 40% 3 08.06.2027 -
Juan Brunetta Torino Aktiv 147 / 133 40% 1 08.06.2027 -
Daniel Paraschiv Bnei Sakhnin Aktiv 113 / 122 76% 1 07.06.2027 Befürworten
Rumarn Burrell Queens Park Rangers Aktiv 133 / 127 40% 2 05.06.2027 -
Yarden Shua Beitar Jerusalem Aktiv 127 / 126 40% 1 05.06.2027 -
Iqraam Rayners Mamelodi Sundowns Aktiv 128 / 129 40% 2 04.06.2027 -
Lyle Foster Burnley Aktiv 139 / 124 40% 1 04.06.2027 -
Adam Armstrong Wolverhampton Aktiv 120 / 130 40% 1 04.06.2027 -
Mattia Felici Cagliari Aktiv 129 / 135 40% 1 03.06.2027 -
Yousef Salech Cardiff City Aktiv 136 / 133 40% 3 01.06.2027 -
Ilyas Ansah Hull City Aktiv 139 / 135 40% 1 01.06.2027 -
Stav Toriel Hapoel Tel Aviv Abgelehnt 125 / 130 40% 2 31.05.2027 Mehr Infos nötig
Lorenzo Colombo Genoa Aktiv 138 / 132 40% 1 31.05.2027 -
Simone Scuffet Pisa Aktiv 136 / 127 40% 9 30.05.2027 -
Balázs Tóth Blackburn Rovers Aktiv 137 / 134 40% 6 30.05.2027 -
Tim Iroegbunam Hull City Aktiv 144 / 147 40% 4 30.05.2027 -
Japhet Tanganga Sheffield United Aktiv 133 / 123 40% 3 30.05.2027 -
Mathías Olivera Cesena Aktiv 150 / 146 40% 1 30.05.2027 -
Callum Doyle Wrexham Aktiv 130 / 141 40% 4 27.05.2027 -
Jacob Widell Zetterström Derby County Aktiv 129 / 128 40% 4 27.05.2027 -
Victor Torp Coventry City Aktiv 133 / 132 40% 2 27.05.2027 -
Aidan Morris Middlesbrough Aktiv 123 / 123 40% 2 27.05.2027 -
Justin Devenny Stoke City Aktiv 128 / 124 40% 1 26.05.2027 -
Brian De Keersmaecker Oxford United Aktiv 129 / 128 40% 1 26.05.2027 -
Jacques Ekomié Wrexham Aktiv 132 / 135 40% 2 25.05.2027 -
Lorenzo Palmisani Frosinone Aktiv 129 / 137 40% 8 23.05.2027 -
Lewis O'Brien Wrexham Aktiv 123 / 131 40% 3 23.05.2027 -
Daniel Iversen Preston Aktiv 129 / 126 40% 4 23.05.2027 -
Thierry Rendall Correia Venezia Aktiv 141 / 144 40% 1 22.05.2027 -
Radek Vítek Middlesbrough Aktiv 147 / 145 40% 5 21.05.2027 -
Samu Maccabi Netanya Aktiv 114 / 118 40% 5 19.05.2027 -
Williams Mahlangu SuperSport United Aktiv 111 / 106 40% 5 19.05.2027 -
George Wickens Lincoln City Aktiv 114 / 115 40% 3 19.05.2027 -
Arijanet Murić Sassuolo Aktiv 143 / 149 40% 6 18.05.2027 -
Viktor Johansson Stoke City Aktiv 129 / 128 40% 3 18.05.2027 -
Joe Lumley Sheffield Wednesday Aktiv 118 / 115 40% 4 17.05.2027 -
Edoardo Bove Watford Aktiv 132 / 133 40% 2 17.05.2027 -
Davis Keillor-Dunn Wrexham Aktiv 114 / 121 40% 2 17.05.2027 -
Matt Clarke Derby County Aktiv 136 / 133 40% 1 17.05.2027 -
Luca Moro Padova Aktiv 126 / 115 40% 1 17.05.2027 -
Joel Pereira Reading Aktiv 110 / 114 40% 2 15.05.2027 -
Bosun Lawal Stoke City Aktiv 132 / 123 40% 1 13.05.2027 -
Lorenzo Montipò Venezia Aktiv 143 / 140 40% 1 13.05.2027 -
Riccardo Gagno Vicenza Aktiv 131 / 118 40% 5 12.05.2027 -
Fran Vieites Exeter City Aktiv 130 / 124 40% 4 12.05.2027 -
Lukas Jensen Millwall Aktiv 120 / 112 40% 4 12.05.2027 -
Stefano Gori Union Brescia Aktiv 118 / 121 40% 6 11.05.2027 -
Michael Cooper Sheffield United Aktiv 126 / 140 40% 5 11.05.2027 -
Max O'Leary West Bromwich Albion Aktiv 123 / 134 40% 4 11.05.2027 -
Josh Keeley Luton Town Aktiv 129 / 119 40% 2 10.05.2027 -
John Yeboah Venezia Aktiv 127 / 112 40% 2 09.05.2027 -
Tyrese Campbell Sheffield United Aktiv 126 / 121 40% 2 09.05.2027 -
Callum O'Hare Sheffield United Aktiv 125 / 128 40% 1 09.05.2027 -
Ilario Monterisi Frosinone Aktiv 122 / 135 40% 1 06.05.2027 -
Egil Selvik Watford Aktiv 122 / 125 40% 3 04.05.2027 -
Bento Lokomotiv Moscow Aktiv 139 / 136 40% 7 30.04.2027 -
Carl Rushworth Coventry City Aktiv 149 / 140 40% 5 27.04.2027 -
Giorgi Kvernadze Frosinone Aktiv 122 / 132 40% 1 27.04.2027 -
Thalys Almería Aktiv 123 / 129 40% 1 27.04.2027 -
Wladimiro Falcone Lecce Aktiv 142 / 139 40% 5 25.04.2027 -
Vladan Kovačević Norwich City Aktiv 113 / 121 40% 2 22.04.2027 -
Jovon Makama Norwich City Aktiv 121 / 133 40% 1 22.04.2027 -
Karlan Grant West Bromwich Albion Aktiv 119 / 125 40% 1 22.04.2027 -
Murphy Cooper Plymouth Argyle Aktiv 124 / 124 40% 4 19.04.2027 -
Alessio Cragno Südtirol Aktiv 120 / 119 40% 4 16.04.2027 -
Omri Glazer Maccabi Haifa Aktiv 127 / 129 40% 4 16.04.2027 -
Nathan Trott Cardiff City Aktiv 119 / 121 40% 5 16.04.2027 -
Filip Marschall Stevenage Aktiv 122 / 110 40% 3 15.04.2027 -
Anthony Patterson Wrexham Aktiv 128 / 124 40% 1 13.04.2027 -
Liam Roberts Mansfield Town Aktiv 104 / 113 40% 2 09.04.2027 -
Assaf Tzur Hapoel Tel Aviv Aktiv 111 / 115 40% 2 08.04.2027 -
Aidomo Emakhu Oxford United Aktiv 115 / 132 40% 1 08.04.2027 -
Grégoire Coudert Burnley Aktiv 136 / 130 40% 2 06.04.2027 -
Hwang Hee-Chan Wolverhampton Aktiv 137 / 125 40% 1 06.04.2027 -
Nicolas Schmid Portsmouth Aktiv 123 / 119 40% 2 31.03.2027 -
Sipho Chaine Orlando Pirates Aktiv 129 / 115 40% 5 29.03.2027 -
Will Mannion Charlton Athletic Aktiv 119 / 113 40% 2 29.03.2027 -
Harry Clarke Preston Aktiv 120 / 122 40% 2 28.03.2027 -
Rubens Dinamo Moscow Aktiv 131 / 132 40% 8 27.03.2027 -
Oli McBurnie Hull City Aktiv 139 / 135 40% 1 27.03.2027 -
Richard Koné Queens Park Rangers Aktiv 119 / 122 40% 1 27.03.2027 -
Arthur Beroe Aktiv 122 / 111 40% 4 22.03.2027 -
Tommy Conway Middlesbrough Aktiv 136 / 122 40% 1 22.03.2027 -
Kostantis Tzolakis Hull City Aktiv 139 / 138 40% 1 20.03.2027 -
Maduka Okoye Udinese Aktiv 141 / 145 40% 2 18.03.2027 -
Jordan Lotomba Bloemfontein Celtic Aktiv 130 / 121 40% 6 17.03.2027 Beobachten
Alfie Doughty Millwall Aktiv 124 / 129 40% 1 17.03.2027 -
Welington Southampton Aktiv 125 / 134 40% 1 14.03.2027 -
Max Johnston Derby County Aktiv 123 / 133 40% 1 14.03.2027 -
Bobby Thomas Coventry City Aktiv 137 / 134 40% 1 12.03.2027 -
Callum Brittain Middlesbrough Aktiv 139 / 121 40% 1 12.03.2027 -
Shea Charles Southampton Aktiv 130 / 132 40% 1 10.03.2027 -
Konan N'Dri Lecce Aktiv 127 / 122 40% 1 09.03.2027 -
Patrick Agyemang Derby County Aktiv 132 / 118 40% 1 09.03.2027 -
Evgeny Staver Rubin Aktiv 108 / 107 40% 3 05.03.2027 -
Brandon Petersen Kaizer Chiefs Aktiv 125 / 123 40% 2 04.03.2027 -
Alexandr Koryakin Krasnodar Aktiv 115 / 118 40% 2 04.03.2027 -
Lucas Ventura Hapoel Beer Sheva Verloren 131 / 131 40% 9 03.03.2027 Mehr Infos nötig
Ruben Loftus-Cheek AC Milan Aktiv 143 / 146 40% 1 03.03.2027 -
Rolando Mandragora Torino Aktiv 135 / 137 40% 1 03.03.2027 -
Nikolay Komlichenko Lokomotiv Moscow Aktiv 126 / 125 40% 1 01.03.2027 -
Luca Gemello Perugia Aktiv 120 / 106 40% 2 27.02.2027 -
Peter Leeuwenburgh Apollon Aktiv 115 / 111 40% 3 25.02.2027 -
Alen Sherri Cagliari Aktiv 120 / 119 40% 1 23.02.2027 -
Simone Perilli Hellas Verona Aktiv 110 / 118 40% 1 22.02.2027 -
Christian Krasnodar Aktiv 132 / 141 40% 5 19.02.2027 -
Alexandr Selikhov Ural Aktiv 111 / 108 40% 2 19.02.2027 -
Pedro Rocha Juventude Aktiv 112 / 117 40% 1 14.02.2027 -
Nikita Haikin Spartak Moscow Aktiv 137 / 144 40% 1 13.02.2027 -
Mateusz Kochalski Qarabag Aktiv 129 / 136 40% 1 11.02.2027 -
Gianluca Saro Foggia Aktiv 117 / 110 40% 1 08.02.2027 -
Svetoslav Vutsov Levski Aktiv 120 / 122 40% 2 07.02.2027 -
Alexandr Chernikov Krasnodar Aktiv 128 / 136 40% 3 06.02.2027 -
Julio Alonso Huesca Aktiv 121 / 117 40% 2 06.02.2027 -
Danil Glebov Dinamo Moscow Aktiv 132 / 124 40% 4 04.02.2027 -
Erick Marcus Ludogorets Aktiv 132 / 115 40% 1 03.02.2027 -
Eliel Peretz Hapoel Beer Sheva Aktiv 125 / 126 40% 1 03.02.2027 -
Maicon Levski Aktiv 128 / 126 40% 8 30.01.2027 -
Diego Costa Krasnodar Aktiv 143 / 143 40% 8 29.01.2027 Beobachten
Doğucan Haspolat Westerlo Aktiv 123 / 118 40% 1 29.01.2027 -
Gedson Fernandes Spartak Moscow Aktiv 130 / 134 40% 5 28.01.2027 -
Josh Doig Sassuolo Aktiv 128 / 131 40% 2 28.01.2027 -
Ammar Ramadan DAC Dunajska Streda Aktiv 133 / 128 40% 1 27.01.2027 -
Liziero Nacional Aktiv 122 / 118 40% 2 25.01.2027 -
Szabolcs Szoboszlai Haladas Aktiv 134 / 133 40% 1 24.01.2027 -
Khuliso Mudau Mamelodi Sundowns Aktiv 137 / 129 40% 2 16.01.2027 -
Mariano Gómez Ferencvaros Aktiv 127 / 122 40% 1 15.01.2027 -
Joel Andersson Ludogorets Aktiv 130 / 123 40% 2 13.01.2027 -
Arsen Adamov Akhmat Grozny Aktiv 128 / 117 40% 1 13.01.2027 -
Benoît Gérard RC Strasbourg Aktiv 133 / 136 40% 1 01.01.2027 -
Manfred Ugalde Spartak Moscow Aktiv 134 / 123 40% 1 01.01.2027 -
Dean Zungu SuperSport United Aktiv 123 / 118 40% 2 26.12.2026 -
Jelle Bataille Maccabi Haifa Aktiv 119 / 126 40% 3 25.12.2026 -
Marko Grujić Levski Aktiv 125 / 120 40% 2 23.12.2026 -
Son Ludogorets Aktiv 117 / 129 40% 2 23.12.2026 -
Eldar Ćivić Baltika Aktiv 116 / 113 40% 2 23.12.2026 -
Luan Patrick Estrela da Amadora Aktiv 120 / 129 40% 2 22.12.2026 -
Issa Djibrilla Zira Aktiv 114 / 115 40% 1 22.12.2026 -
Pedro Bicalho Qarabag Aktiv 129 / 124 40% 5 15.12.2026 -
João Victor CSKA Moscow Aktiv 124 / 133 40% 1 13.12.2026 -
Moisés CSKA Moscow Aktiv 124 / 133 40% 8 10.12.2026 -
Hlompho Billiat Free State Stars Aktiv 122 / 129 40% 1 10.12.2026 -
Mitchel Bakker Rostov Aktiv 120 / 129 40% 1 05.12.2026 -
Pedro Naressi Ludogorets Aktiv 116 / 119 40% 2 02.12.2026 -
Cesar Blackman Slovan Bratislava Aktiv 122 / 118 40% 1 02.12.2026 -
Pedrão Maccabi Haifa Aktiv 110 / 122 40% 3 01.12.2026 -
Aubrey Modiba Mamelodi Sundowns Aktiv 125 / 122 40% 4 29.11.2026 -
Sean Goldberg Maccabi Haifa Aktiv 124 / 119 40% 1 28.11.2026 -
Christos Mouzakitis Hull City Aktiv 135 / 138 40% 1 26.11.2026 -
Peter Agba Maccabi Haifa Aktiv 122 / 119 40% 2 25.11.2026 -
Rahim Ibrahim Slovan Bratislava Aktiv 118 / 120 40% 6 23.11.2026 -
Caolan Boyd-Munce Wycombe Wanderers Aktiv 113 / 112 40% 2 23.11.2026 -
Svetozar Marković Slovan Bratislava Aktiv 122 / 126 40% 2 12.11.2026 -
Thalente Mbatha Orlando Pirates Aktiv 119 / 115 40% 1 12.11.2026 -
Vasco Sousa Porto Aktiv 113 / 128 40% 2 05.11.2026 -
Facundo Miño Deportivo Riestra Aktiv 124 / 123 40% 3 02.11.2026 -
Alexis Steimbach Gimnasia La Plata Aktiv 117 / 115 40% 5 31.10.2026 -
Cameron Brannagan Oxford United Aktiv 116 / 112 40% 6 31.10.2026 -
Pastor CSKA Sofia Aktiv 125 / 118 40% 2 29.10.2026 -
Ali Mohamed Maccabi Haifa Aktiv 116 / 114 40% 1 26.10.2026 -
Igor Jesus Los Angeles Football Club Aktiv 120 / 126 40% 2 18.10.2026 -
Christos Zafeiris FC Copenhagen Aktiv 134 / 150 40% 1 18.10.2026 -
Filip Kaloč Ludogorets Aktiv 132 / 117 40% 1 14.10.2026 -
Kady Borges Qarabag Aktiv 135 / 129 40% 1 14.10.2026 -
Yves Bissouma Tottenham Aktiv 150 / 143 40% 1 11.10.2026 -
Fernand Mayembo Hapoel Tel Aviv Aktiv 110 / 121 40% 1 04.10.2026 -
Owen Beck Liverpool Aktiv 124 / 119 40% 1 03.10.2026 -
Nico Elvedi Leeds United Aktiv 132 / 129 40% 1 26.09.2026 -
Ivan Oblyakov CSKA Moscow Aktiv 133 / 125 40% 1 24.09.2026 -
Lucas Arce Godoy Cruz Aktiv 125 / 125 40% 1 22.09.2026 -
Alexander Djiku Spartak Moscow Aktiv 138 / 132 40% 1 17.09.2026 -
Christopher Martins Pereira Spartak Moscow Aktiv 132 / 127 40% 1 16.09.2026 -
Bruno Tubarão Persija Aktiv 110 / 120 40% 1 15.09.2026 -
Fernando Costanza Krylya Sovetov Aktiv 117 / 119 40% 1 09.09.2026 -
Durel Avounou Bnei Sakhnin Aktiv 108 / 102 76% 1 31.08.2026 Befürworten
Lucas Bruera Carabobo Aktiv 113 / 120 40% 1 25.08.2026 -
Jacob Karlstrøm Anorthosis Aktiv 112 / 112 40% 1 25.08.2026 -
Charlie Taylor Southampton Aktiv 113 / 117 40% 1 10.08.2026 -
Filippo Romagna Sassuolo Aktiv 125 / 122 40% 1 03.08.2026 -
Jordan Beyer Burnley Aktiv 126 / 130 40% 1 02.08.2026 -
Bernardo TSG Hoffenheim Aktiv 131 / 136 40% 1 02.08.2026 -
Brahim Díaz Real Madrid Aktiv 138 / 153 40% 1 02.08.2026 -
Romain Del Castillo Osasuna Aktiv 140 / 144 40% 1 01.08.2026 -
Gianluca Scamacca Atalanta Aktiv 139 / 154 40% 1 01.08.2026 -
Leandro Trossard Besiktas Aktiv 152 / 153 40% 1 01.08.2026 -